sensor_id;sensor_type;location;lat;lon;timestamp;P1;durP1;ratioP1;P2;durP2;ratioP2
23388;SDS011;11867;51.198;11.966;2022-11-24T00:00:03;10.05;;;5.25;;
23388;SDS011;11867;51.198;11.966;2022-11-24T00:05:07;11.30;;;6.93;;
23388;SDS011;11867;51.198;11.966;2022-11-24T00:10:11;12.90;;;6.57;;
23388;SDS011;11867;51.198;11.966;2022-11-24T00:15:13;12.57;;;7.65;;
23388;SDS011;11867;51.198;11.966;2022-11-24T00:20:16;10.05;;;6.80;;
23388;SDS011;11867;51.198;11.966;2022-11-24T00:25:20;10.02;;;7.20;;
23388;SDS011;11867;51.198;11.966;2022-11-24T00:30:23;7.07;;;4.95;;
23388;SDS011;11867;51.198;11.966;2022-11-24T00:35:25;12.13;;;7.32;;
23388;SDS011;11867;51.198;11.966;2022-11-24T00:40:29;12.43;;;7.60;;
23388;SDS011;11867;51.198;11.966;2022-11-24T00:45:35;13.57;;;7.55;;
23388;SDS011;11867;51.198;11.966;2022-11-24T00:50:38;14.05;;;7.95;;
23388;SDS011;11867;51.198;11.966;2022-11-24T00:55:42;13.30;;;7.43;;
23388;SDS011;11867;51.198;11.966;2022-11-24T01:00:45;10.82;;;6.15;;
23388;SDS011;11867;51.198;11.966;2022-11-24T01:05:48;12.35;;;7.82;;
23388;SDS011;11867;51.198;11.966;2022-11-24T01:10:52;15.63;;;8.60;;
23388;SDS011;11867;51.198;11.966;2022-11-24T01:15:54;14.10;;;8.88;;
23388;SDS011;11867;51.198;11.966;2022-11-24T01:20:57;12.57;;;8.00;;
23388;SDS011;11867;51.198;11.966;2022-11-24T01:26:03;12.90;;;7.95;;
23388;SDS011;11867;51.198;11.966;2022-11-24T01:31:07;12.25;;;8.00;;
23388;SDS011;11867;51.198;11.966;2022-11-24T01:36:10;11.05;;;8.13;;
23388;SDS011;11867;51.198;11.966;2022-11-24T01:41:15;13.40;;;8.27;;
23388;SDS011;11867;51.198;11.966;2022-11-24T01:46:20;12.77;;;9.27;;
23388;SDS011;11867;51.198;11.966;2022-11-24T01:51:25;12.80;;;7.90;;
23388;SDS011;11867;51.198;11.966;2022-11-24T01:56:34;11.77;;;8.35;;
23388;SDS011;11867;51.198;11.966;2022-11-24T02:01:40;10.15;;;7.68;;
23388;SDS011;11867;51.198;11.966;2022-11-24T02:06:43;11.77;;;8.27;;
23388;SDS011;11867;51.198;11.966;2022-11-24T02:11:49;9.43;;;6.30;;
23388;SDS011;11867;51.198;11.966;2022-11-24T02:16:54;11.93;;;8.00;;
23388;SDS011;11867;51.198;11.966;2022-11-24T02:21:57;9.32;;;8.20;;
23388;SDS011;11867;51.198;11.966;2022-11-24T02:27:01;11.93;;;7.82;;
23388;SDS011;11867;51.198;11.966;2022-11-24T02:32:05;11.65;;;8.77;;
23388;SDS011;11867;51.198;11.966;2022-11-24T02:37:10;13.02;;;8.32;;
23388;SDS011;11867;51.198;11.966;2022-11-24T02:42:14;11.48;;;8.80;;
23388;SDS011;11867;51.198;11.966;2022-11-24T02:47:16;9.25;;;7.00;;
23388;SDS011;11867;51.198;11.966;2022-11-24T02:52:19;16.38;;;10.55;;
23388;SDS011;11867;51.198;11.966;2022-11-24T02:57:23;13.07;;;9.15;;
23388;SDS011;11867;51.198;11.966;2022-11-24T03:02:26;11.48;;;6.80;;
23388;SDS011;11867;51.198;11.966;2022-11-24T03:12:34;12.90;;;9.10;;
23388;SDS011;11867;51.198;11.966;2022-11-24T03:17:37;7.85;;;6.38;;
23388;SDS011;11867;51.198;11.966;2022-11-24T03:22:39;11.38;;;8.38;;
23388;SDS011;11867;51.198;11.966;2022-11-24T03:27:44;11.55;;;7.68;;
23388;SDS011;11867;51.198;11.966;2022-11-24T03:32:47;8.73;;;6.75;;
23388;SDS011;11867;51.198;11.966;2022-11-24T03:37:52;8.90;;;7.90;;
23388;SDS011;11867;51.198;11.966;2022-11-24T03:42:56;9.02;;;6.72;;
23388;SDS011;11867;51.198;11.966;2022-11-24T03:47:58;8.32;;;7.00;;
23388;SDS011;11867;51.198;11.966;2022-11-24T03:53:01;11.05;;;6.82;;
23388;SDS011;11867;51.198;11.966;2022-11-24T03:58:05;9.00;;;6.60;;
23388;SDS011;11867;51.198;11.966;2022-11-24T04:03:07;5.97;;;5.10;;
23388;SDS011;11867;51.198;11.966;2022-11-24T04:08:10;9.00;;;6.13;;
23388;SDS011;11867;51.198;11.966;2022-11-24T04:13:15;9.23;;;6.53;;
23388;SDS011;11867;51.198;11.966;2022-11-24T04:18:19;10.45;;;6.43;;
23388;SDS011;11867;51.198;11.966;2022-11-24T04:23:22;7.97;;;6.05;;
23388;SDS011;11867;51.198;11.966;2022-11-24T04:28:26;7.60;;;4.93;;
23388;SDS011;11867;51.198;11.966;2022-11-24T04:33:28;9.00;;;4.88;;
23388;SDS011;11867;51.198;11.966;2022-11-24T04:38:31;6.97;;;4.70;;
23388;SDS011;11867;51.198;11.966;2022-11-24T04:43:55;8.27;;;5.35;;
23388;SDS011;11867;51.198;11.966;2022-11-24T04:48:57;9.07;;;5.30;;
23388;SDS011;11867;51.198;11.966;2022-11-24T04:54:00;7.10;;;5.57;;
23388;SDS011;11867;51.198;11.966;2022-11-24T04:59:05;8.40;;;5.60;;
23388;SDS011;11867;51.198;11.966;2022-11-24T05:04:09;8.45;;;5.38;;
23388;SDS011;11867;51.198;11.966;2022-11-24T05:09:13;4.37;;;3.50;;
23388;SDS011;11867;51.198;11.966;2022-11-24T05:14:18;5.00;;;2.92;;
23388;SDS011;11867;51.198;11.966;2022-11-24T05:19:20;8.65;;;4.45;;
23388;SDS011;11867;51.198;11.966;2022-11-24T05:24:27;8.50;;;4.05;;
23388;SDS011;11867;51.198;11.966;2022-11-24T05:29:31;9.25;;;4.65;;
23388;SDS011;11867;51.198;11.966;2022-11-24T05:34:33;5.63;;;4.18;;
23388;SDS011;11867;51.198;11.966;2022-11-24T05:39:36;8.05;;;4.50;;
23388;SDS011;11867;51.198;11.966;2022-11-24T05:44:40;9.75;;;4.90;;
23388;SDS011;11867;51.198;11.966;2022-11-24T05:49:43;6.68;;;4.40;;
23388;SDS011;11867;51.198;11.966;2022-11-24T05:54:46;7.88;;;4.28;;
23388;SDS011;11867;51.198;11.966;2022-11-24T05:59:50;8.05;;;3.75;;
23388;SDS011;11867;51.198;11.966;2022-11-24T06:04:52;8.75;;;3.20;;
23388;SDS011;11867;51.198;11.966;2022-11-24T06:09:55;8.13;;;4.60;;
23388;SDS011;11867;51.198;11.966;2022-11-24T06:14:59;5.93;;;3.83;;
23388;SDS011;11867;51.198;11.966;2022-11-24T06:20:02;6.32;;;2.78;;
23388;SDS011;11867;51.198;11.966;2022-11-24T06:25:05;4.28;;;3.67;;
23388;SDS011;11867;51.198;11.966;2022-11-24T06:30:11;4.53;;;2.88;;
23388;SDS011;11867;51.198;11.966;2022-11-24T06:35:16;9.25;;;4.00;;
23388;SDS011;11867;51.198;11.966;2022-11-24T06:40:18;11.38;;;3.95;;
23388;SDS011;11867;51.198;11.966;2022-11-24T06:45:22;8.98;;;3.80;;
23388;SDS011;11867;51.198;11.966;2022-11-24T06:50:25;7.22;;;3.00;;
23388;SDS011;11867;51.198;11.966;2022-11-24T06:55:33;9.55;;;3.45;;
23388;SDS011;11867;51.198;11.966;2022-11-24T07:00:37;7.88;;;3.45;;
23388;SDS011;11867;51.198;11.966;2022-11-24T07:05:40;5.82;;;3.05;;
23388;SDS011;11867;51.198;11.966;2022-11-24T07:10:43;9.57;;;3.90;;
23388;SDS011;11867;51.198;11.966;2022-11-24T07:15:47;7.32;;;3.90;;
23388;SDS011;11867;51.198;11.966;2022-11-24T07:20:50;7.50;;;3.15;;
23388;SDS011;11867;51.198;11.966;2022-11-24T07:25:52;7.28;;;4.03;;
23388;SDS011;11867;51.198;11.966;2022-11-24T07:30:56;9.18;;;3.42;;
23388;SDS011;11867;51.198;11.966;2022-11-24T07:36:00;8.57;;;3.65;;
23388;SDS011;11867;51.198;11.966;2022-11-24T07:41:04;5.03;;;2.17;;
23388;SDS011;11867;51.198;11.966;2022-11-24T07:46:11;9.10;;;2.53;;
23388;SDS011;11867;51.198;11.966;2022-11-24T07:51:15;9.90;;;2.75;;
23388;SDS011;11867;51.198;11.966;2022-11-24T07:56:18;8.77;;;2.78;;
23388;SDS011;11867;51.198;11.966;2022-11-24T08:01:22;8.55;;;3.00;;
23388;SDS011;11867;51.198;11.966;2022-11-24T08:06:28;7.93;;;2.47;;
23388;SDS011;11867;51.198;11.966;2022-11-24T08:11:40;8.73;;;3.13;;
23388;SDS011;11867;51.198;11.966;2022-11-24T08:16:44;9.57;;;2.90;;
23388;SDS011;11867;51.198;11.966;2022-11-24T08:21:47;9.20;;;3.75;;
23388;SDS011;11867;51.198;11.966;2022-11-24T08:26:50;9.52;;;2.30;;
23388;SDS011;11867;51.198;11.966;2022-11-24T08:31:54;10.57;;;2.53;;
23388;SDS011;11867;51.198;11.966;2022-11-24T08:36:58;9.45;;;2.70;;
23388;SDS011;11867;51.198;11.966;2022-11-24T08:42:01;7.90;;;2.72;;
23388;SDS011;11867;51.198;11.966;2022-11-24T08:47:05;11.70;;;2.97;;
23388;SDS011;11867;51.198;11.966;2022-11-24T08:52:07;5.45;;;1.92;;
23388;SDS011;11867;51.198;11.966;2022-11-24T08:57:10;11.07;;;3.17;;
23388;SDS011;11867;51.198;11.966;2022-11-24T09:02:23;6.50;;;2.53;;
23388;SDS011;11867;51.198;11.966;2022-11-24T09:07:25;13.30;;;3.22;;
23388;SDS011;11867;51.198;11.966;2022-11-24T09:12:28;9.88;;;2.53;;
23388;SDS011;11867;51.198;11.966;2022-11-24T09:17:32;7.75;;;2.83;;
23388;SDS011;11867;51.198;11.966;2022-11-24T09:22:35;6.35;;;1.83;;
23388;SDS011;11867;51.198;11.966;2022-11-24T09:27:38;6.97;;;2.05;;
23388;SDS011;11867;51.198;11.966;2022-11-24T09:32:45;7.90;;;1.98;;
23388;SDS011;11867;51.198;11.966;2022-11-24T09:37:47;6.82;;;2.50;;
23388;SDS011;11867;51.198;11.966;2022-11-24T09:42:53;7.33;;;1.80;;
23388;SDS011;11867;51.198;11.966;2022-11-24T09:48:06;6.60;;;1.85;;
23388;SDS011;11867;51.198;11.966;2022-11-24T09:53:14;4.32;;;1.70;;
23388;SDS011;11867;51.198;11.966;2022-11-24T09:58:23;4.85;;;1.60;;
23388;SDS011;11867;51.198;11.966;2022-11-24T10:03:38;6.40;;;1.75;;
23388;SDS011;11867;51.198;11.966;2022-11-24T10:08:52;5.22;;;1.60;;
23388;SDS011;11867;51.198;11.966;2022-11-24T10:19:45;5.18;;;1.75;;
23388;SDS011;11867;51.198;11.966;2022-11-24T10:24:55;6.18;;;1.95;;
23388;SDS011;11867;51.198;11.966;2022-11-24T10:30:14;7.25;;;1.67;;
23388;SDS011;11867;51.198;11.966;2022-11-24T10:35:21;6.75;;;2.00;;
23388;SDS011;11867;51.198;11.966;2022-11-24T10:40:30;7.63;;;1.85;;
23388;SDS011;11867;51.198;11.966;2022-11-24T10:45:58;4.63;;;1.67;;
23388;SDS011;11867;51.198;11.966;2022-11-24T10:51:04;7.80;;;2.13;;
23388;SDS011;11867;51.198;11.966;2022-11-24T10:56:37;9.00;;;2.20;;
23388;SDS011;11867;51.198;11.966;2022-11-24T11:01:40;8.48;;;2.13;;
23388;SDS011;11867;51.198;11.966;2022-11-24T11:06:46;11.20;;;2.20;;
23388;SDS011;11867;51.198;11.966;2022-11-24T11:11:51;6.63;;;2.00;;
23388;SDS011;11867;51.198;11.966;2022-11-24T11:16:55;9.57;;;3.17;;
23388;SDS011;11867;51.198;11.966;2022-11-24T11:22:01;9.40;;;2.40;;
23388;SDS011;11867;51.198;11.966;2022-11-24T11:27:17;9.10;;;1.98;;
23388;SDS011;11867;51.198;11.966;2022-11-24T11:32:22;9.65;;;2.50;;
23388;SDS011;11867;51.198;11.966;2022-11-24T11:42:51;6.43;;;2.67;;
23388;SDS011;11867;51.198;11.966;2022-11-24T11:48:11;10.85;;;2.30;;
23388;SDS011;11867;51.198;11.966;2022-11-24T11:53:26;8.60;;;2.45;;
23388;SDS011;11867;51.198;11.966;2022-11-24T11:58:41;11.35;;;2.78;;
23388;SDS011;11867;51.198;11.966;2022-11-24T12:04:00;8.43;;;2.17;;
23388;SDS011;11867;51.198;11.966;2022-11-24T12:09:16;10.02;;;2.63;;
23388;SDS011;11867;51.198;11.966;2022-11-24T12:14:36;8.02;;;2.55;;
23388;SDS011;11867;51.198;11.966;2022-11-24T12:19:51;9.50;;;2.13;;
23388;SDS011;11867;51.198;11.966;2022-11-24T12:25:12;10.90;;;2.45;;
23388;SDS011;11867;51.198;11.966;2022-11-24T12:30:23;9.55;;;2.28;;
23388;SDS011;11867;51.198;11.966;2022-11-24T12:35:31;9.43;;;2.50;;
23388;SDS011;11867;51.198;11.966;2022-11-24T12:40:43;8.48;;;2.40;;
23388;SDS011;11867;51.198;11.966;2022-11-24T12:46:18;11.57;;;2.50;;
23388;SDS011;11867;51.198;11.966;2022-11-24T12:51:27;11.93;;;2.25;;
23388;SDS011;11867;51.198;11.966;2022-11-24T12:56:35;9.13;;;2.58;;
23388;SDS011;11867;51.198;11.966;2022-11-24T13:01:45;8.10;;;2.75;;
23388;SDS011;11867;51.198;11.966;2022-11-24T13:06:56;8.98;;;2.75;;
23388;SDS011;11867;51.198;11.966;2022-11-24T13:12:09;9.18;;;2.20;;
23388;SDS011;11867;51.198;11.966;2022-11-24T13:17:25;12.63;;;2.72;;
23388;SDS011;11867;51.198;11.966;2022-11-24T13:22:50;9.48;;;2.30;;
23388;SDS011;11867;51.198;11.966;2022-11-24T13:27:56;13.73;;;2.83;;
23388;SDS011;11867;51.198;11.966;2022-11-24T13:33:00;11.05;;;2.75;;
23388;SDS011;11867;51.198;11.966;2022-11-24T13:38:39;8.18;;;2.08;;
23388;SDS011;11867;51.198;11.966;2022-11-24T13:49:32;11.85;;;3.17;;
23388;SDS011;11867;51.198;11.966;2022-11-24T13:59:43;10.05;;;2.50;;
23388;SDS011;11867;51.198;11.966;2022-11-24T14:04:46;8.32;;;1.95;;
23388;SDS011;11867;51.198;11.966;2022-11-24T14:09:49;18.13;;;2.67;;
23388;SDS011;11867;51.198;11.966;2022-11-24T14:14:58;13.48;;;2.90;;
23388;SDS011;11867;51.198;11.966;2022-11-24T14:20:22;12.27;;;2.95;;
23388;SDS011;11867;51.198;11.966;2022-11-24T14:30:32;8.90;;;2.08;;
23388;SDS011;11867;51.198;11.966;2022-11-24T14:35:41;10.02;;;3.25;;
23388;SDS011;11867;51.198;11.966;2022-11-24T14:40:46;14.63;;;3.20;;
23388;SDS011;11867;51.198;11.966;2022-11-24T14:45:54;11.70;;;2.92;;
23388;SDS011;11867;51.198;11.966;2022-11-24T14:51:06;10.25;;;3.00;;
23388;SDS011;11867;51.198;11.966;2022-11-24T14:56:23;14.75;;;3.15;;
23388;SDS011;11867;51.198;11.966;2022-11-24T15:01:31;15.40;;;2.92;;
23388;SDS011;11867;51.198;11.966;2022-11-24T15:06:36;16.10;;;2.78;;
23388;SDS011;11867;51.198;11.966;2022-11-24T15:11:39;14.10;;;2.85;;
23388;SDS011;11867;51.198;11.966;2022-11-24T15:16:43;7.57;;;2.22;;
23388;SDS011;11867;51.198;11.966;2022-11-24T15:21:46;10.75;;;2.80;;
23388;SDS011;11867;51.198;11.966;2022-11-24T15:26:48;11.27;;;3.15;;
23388;SDS011;11867;51.198;11.966;2022-11-24T15:31:52;7.07;;;2.45;;
23388;SDS011;11867;51.198;11.966;2022-11-24T15:36:55;8.38;;;2.08;;
23388;SDS011;11867;51.198;11.966;2022-11-24T15:41:58;16.38;;;3.28;;
23388;SDS011;11867;51.198;11.966;2022-11-24T15:47:04;11.13;;;2.58;;
23388;SDS011;11867;51.198;11.966;2022-11-24T15:52:06;11.75;;;2.60;;
23388;SDS011;11867;51.198;11.966;2022-11-24T15:57:09;11.45;;;3.58;;
23388;SDS011;11867;51.198;11.966;2022-11-24T16:02:13;11.00;;;3.47;;
23388;SDS011;11867;51.198;11.966;2022-11-24T16:07:16;7.90;;;2.00;;
23388;SDS011;11867;51.198;11.966;2022-11-24T16:12:21;24.60;;;15.05;;
23388;SDS011;11867;51.198;11.966;2022-11-24T16:17:26;9.00;;;2.53;;
23388;SDS011;11867;51.198;11.966;2022-11-24T16:22:28;13.75;;;3.15;;
23388;SDS011;11867;51.198;11.966;2022-11-24T16:27:31;11.23;;;3.00;;
23388;SDS011;11867;51.198;11.966;2022-11-24T16:32:35;17.50;;;5.22;;
23388;SDS011;11867;51.198;11.966;2022-11-24T16:37:37;12.27;;;3.55;;
23388;SDS011;11867;51.198;11.966;2022-11-24T16:42:40;11.75;;;3.65;;
23388;SDS011;11867;51.198;11.966;2022-11-24T16:47:44;14.35;;;4.45;;
23388;SDS011;11867;51.198;11.966;2022-11-24T16:52:47;9.15;;;3.10;;
23388;SDS011;11867;51.198;11.966;2022-11-24T16:57:51;17.77;;;13.35;;
23388;SDS011;11867;51.198;11.966;2022-11-24T17:02:55;11.68;;;7.05;;
23388;SDS011;11867;51.198;11.966;2022-11-24T17:08:03;7.00;;;2.47;;
23388;SDS011;11867;51.198;11.966;2022-11-24T17:13:05;10.52;;;4.78;;
23388;SDS011;11867;51.198;11.966;2022-11-24T17:18:10;8.60;;;3.72;;
23388;SDS011;11867;51.198;11.966;2022-11-24T17:23:25;7.30;;;3.47;;
23388;SDS011;11867;51.198;11.966;2022-11-24T17:28:28;9.30;;;3.40;;
23388;SDS011;11867;51.198;11.966;2022-11-24T17:33:33;8.25;;;3.10;;
23388;SDS011;11867;51.198;11.966;2022-11-24T17:38:36;10.13;;;4.15;;
23388;SDS011;11867;51.198;11.966;2022-11-24T17:43:39;14.07;;;6.13;;
23388;SDS011;11867;51.198;11.966;2022-11-24T17:48:43;17.42;;;7.13;;
23388;SDS011;11867;51.198;11.966;2022-11-24T17:53:47;10.73;;;6.40;;
23388;SDS011;11867;51.198;11.966;2022-11-24T17:58:51;13.50;;;7.00;;
23388;SDS011;11867;51.198;11.966;2022-11-24T18:03:56;19.70;;;9.77;;
23388;SDS011;11867;51.198;11.966;2022-11-24T18:08:59;24.02;;;12.15;;
23388;SDS011;11867;51.198;11.966;2022-11-24T18:14:02;18.92;;;10.60;;
23388;SDS011;11867;51.198;11.966;2022-11-24T18:19:06;11.50;;;7.53;;
23388;SDS011;11867;51.198;11.966;2022-11-24T18:24:11;24.60;;;15.52;;
23388;SDS011;11867;51.198;11.966;2022-11-24T18:29:21;22.67;;;14.00;;
23388;SDS011;11867;51.198;11.966;2022-11-24T18:34:25;12.73;;;7.95;;
23388;SDS011;11867;51.198;11.966;2022-11-24T18:39:27;8.45;;;4.78;;
23388;SDS011;11867;51.198;11.966;2022-11-24T18:44:30;9.32;;;3.10;;
23388;SDS011;11867;51.198;11.966;2022-11-24T18:49:35;7.82;;;2.47;;
23388;SDS011;11867;51.198;11.966;2022-11-24T18:54:37;8.23;;;2.53;;
23388;SDS011;11867;51.198;11.966;2022-11-24T18:59:40;4.57;;;2.35;;
23388;SDS011;11867;51.198;11.966;2022-11-24T19:04:44;4.45;;;2.22;;
23388;SDS011;11867;51.198;11.966;2022-11-24T19:09:46;6.40;;;2.13;;
23388;SDS011;11867;51.198;11.966;2022-11-24T19:14:49;4.60;;;2.03;;
23388;SDS011;11867;51.198;11.966;2022-11-24T19:19:53;5.65;;;2.55;;
23388;SDS011;11867;51.198;11.966;2022-11-24T19:24:56;2.92;;;1.33;;
23388;SDS011;11867;51.198;11.966;2022-11-24T19:29:58;3.20;;;1.90;;
23388;SDS011;11867;51.198;11.966;2022-11-24T19:35:02;7.15;;;2.15;;
23388;SDS011;11867;51.198;11.966;2022-11-24T19:45:09;5.07;;;2.45;;
23388;SDS011;11867;51.198;11.966;2022-11-24T19:50:13;7.45;;;3.20;;
23388;SDS011;11867;51.198;11.966;2022-11-24T19:55:16;5.40;;;2.85;;
23388;SDS011;11867;51.198;11.966;2022-11-24T20:00:19;5.20;;;2.75;;
23388;SDS011;11867;51.198;11.966;2022-11-24T20:05:23;4.55;;;2.80;;
23388;SDS011;11867;51.198;11.966;2022-11-24T20:10:25;6.82;;;3.00;;
23388;SDS011;11867;51.198;11.966;2022-11-24T20:15:28;6.18;;;2.80;;
23388;SDS011;11867;51.198;11.966;2022-11-24T20:20:34;9.45;;;3.47;;
23388;SDS011;11867;51.198;11.966;2022-11-24T20:25:37;6.25;;;2.80;;
23388;SDS011;11867;51.198;11.966;2022-11-24T20:30:40;9.60;;;4.30;;
23388;SDS011;11867;51.198;11.966;2022-11-24T20:35:44;17.10;;;6.57;;
23388;SDS011;11867;51.198;11.966;2022-11-24T20:40:46;12.98;;;7.50;;
23388;SDS011;11867;51.198;11.966;2022-11-24T20:45:49;9.85;;;5.30;;
23388;SDS011;11867;51.198;11.966;2022-11-24T20:50:53;8.88;;;4.60;;
23388;SDS011;11867;51.198;11.966;2022-11-24T20:55:58;10.10;;;4.45;;
23388;SDS011;11867;51.198;11.966;2022-11-24T21:01:06;9.48;;;4.55;;
23388;SDS011;11867;51.198;11.966;2022-11-24T21:06:13;9.40;;;4.35;;
23388;SDS011;11867;51.198;11.966;2022-11-24T21:11:16;7.40;;;3.47;;
23388;SDS011;11867;51.198;11.966;2022-11-24T21:16:22;9.68;;;4.50;;
23388;SDS011;11867;51.198;11.966;2022-11-24T21:21:28;7.20;;;4.43;;
23388;SDS011;11867;51.198;11.966;2022-11-24T21:26:34;10.13;;;5.25;;
23388;SDS011;11867;51.198;11.966;2022-11-24T21:31:38;11.50;;;5.60;;
23388;SDS011;11867;51.198;11.966;2022-11-24T21:36:42;8.95;;;5.20;;
23388;SDS011;11867;51.198;11.966;2022-11-24T21:46:48;12.93;;;5.47;;
23388;SDS011;11867;51.198;11.966;2022-11-24T21:51:57;9.57;;;5.10;;
23388;SDS011;11867;51.198;11.966;2022-11-24T21:57:00;7.68;;;5.20;;
23388;SDS011;11867;51.198;11.966;2022-11-24T22:02:02;8.98;;;5.57;;
23388;SDS011;11867;51.198;11.966;2022-11-24T22:07:14;7.40;;;5.18;;
23388;SDS011;11867;51.198;11.966;2022-11-24T22:12:17;9.63;;;3.75;;
23388;SDS011;11867;51.198;11.966;2022-11-24T22:17:19;10.88;;;5.60;;
23388;SDS011;11867;51.198;11.966;2022-11-24T22:22:23;8.75;;;5.30;;
23388;SDS011;11867;51.198;11.966;2022-11-24T22:27:26;8.65;;;4.05;;
23388;SDS011;11867;51.198;11.966;2022-11-24T22:32:29;10.95;;;5.72;;
23388;SDS011;11867;51.198;11.966;2022-11-24T22:37:34;8.75;;;5.07;;
23388;SDS011;11867;51.198;11.966;2022-11-24T22:42:37;11.48;;;5.53;;
23388;SDS011;11867;51.198;11.966;2022-11-24T22:47:39;10.48;;;5.68;;
23388;SDS011;11867;51.198;11.966;2022-11-24T22:52:46;9.07;;;4.65;;
23388;SDS011;11867;51.198;11.966;2022-11-24T22:57:51;12.77;;;5.97;;
23388;SDS011;11867;51.198;11.966;2022-11-24T23:02:57;9.85;;;5.93;;
23388;SDS011;11867;51.198;11.966;2022-11-24T23:08:01;14.13;;;5.88;;
23388;SDS011;11867;51.198;11.966;2022-11-24T23:13:06;10.10;;;4.78;;
23388;SDS011;11867;51.198;11.966;2022-11-24T23:18:09;10.85;;;4.60;;
23388;SDS011;11867;51.198;11.966;2022-11-24T23:23:13;7.70;;;3.75;;
23388;SDS011;11867;51.198;11.966;2022-11-24T23:28:16;6.82;;;3.40;;
23388;SDS011;11867;51.198;11.966;2022-11-24T23:33:18;8.63;;;4.15;;
23388;SDS011;11867;51.198;11.966;2022-11-24T23:38:25;7.07;;;3.47;;
23388;SDS011;11867;51.198;11.966;2022-11-24T23:43:30;7.13;;;3.88;;
23388;SDS011;11867;51.198;11.966;2022-11-24T23:48:34;7.32;;;3.28;;
23388;SDS011;11867;51.198;11.966;2022-11-24T23:53:39;6.53;;;2.90;;
23388;SDS011;11867;51.198;11.966;2022-11-24T23:58:42;5.47;;;3.35;;
